Time;durP1;ratioP1;P1;durP2;ratioP2;P2;SDS_P1;SDS_P2;PMS_P1;PMS_P2;Temp;Humidity;BMP_temperature;BMP_pressure;BME280_temperature;BME280_humidity;BME280_pressure;Samples;Min_cycle;Max_cycle;Signal;HPM_P1;HPM_P2
2022/06/10 00:00:35;;;;;;;4.88;1.60;;;;;;;;;;5073095;27;97687;-72
2022/06/10 00:03:06;;;;;;;6.15;2.05;;;;;;;;;;5069389;27;95261;-73
2022/06/10 00:05:41;;;;;;;14.13;1.83;;;;;;;;;;5069941;27;95682;-73
2022/06/10 00:08:19;;;;;;;7.15;1.80;;;;;;;;;;5057609;27;97917;-72
2022/06/10 00:10:53;;;;;;;8.40;1.75;;;;;;;;;;5053334;27;95353;-73
2022/06/10 00:13:27;;;;;;;3.33;1.70;;;;;;;;;;5067676;27;96291;-72
2022/06/10 00:15:57;;;;;;;4.90;2.13;;;;;;;;;;5057748;27;97305;-72
2022/06/10 00:18:33;;;;;;;2.33;1.40;;;;;;;;;;5059126;27;95505;-73
2022/06/10 00:21:06;;;;;;;4.95;1.75;;;;;;;;;;5065637;27;96276;-73
2022/06/10 00:23:37;;;;;;;3.25;1.60;;;;;;;;;;5057073;27;97078;-72
2022/06/10 00:26:21;;;;;;;3.47;1.50;;;;;;;;;;5056894;27;96833;-72
2022/06/10 00:28:52;;;;;;;3.08;1.83;;;;;;;;;;5071609;27;95380;-72
2022/06/10 00:31:23;;;;;;;4.87;1.97;;;;;;;;;;5073104;27;95391;-72
2022/06/10 00:33:51;;;;;;;3.03;1.65;;;;;;;;;;5062724;27;96169;-73
2022/06/10 00:36:23;;;;;;;3.05;1.65;;;;;;;;;;5056490;27;97348;-73
2022/06/10 00:38:59;;;;;;;3.95;2.17;;;;;;;;;;5073170;27;95460;-72
2022/06/10 00:41:30;;;;;;;4.05;1.88;;;;;;;;;;5068584;27;97188;-72
2022/06/10 00:43:57;;;;;;;3.08;1.90;;;;;;;;;;5072334;27;95462;-72
2022/06/10 00:46:23;;;;;;;4.53;2.00;;;;;;;;;;5070022;27;96770;-72
2022/06/10 00:48:56;;;;;;;3.08;1.55;;;;;;;;;;5070964;27;97583;-72
2022/06/10 00:51:34;;;;;;;3.60;2.08;;;;;;;;;;5072511;27;95439;-73
2022/06/10 00:54:19;;;;;;;10.77;2.40;;;;;;;;;;5072153;27;95831;-73
2022/06/10 00:56:48;;;;;;;2.85;1.80;;;;;;;;;;5065982;27;97387;-71
2022/06/10 00:59:22;;;;;;;4.20;1.98;;;;;;;;;;5059998;27;95319;-72
2022/06/10 01:01:51;;;;;;;5.82;2.17;;;;;;;;;;5074709;27;97034;-73
2022/06/10 01:04:18;;;;;;;4.03;2.10;;;;;;;;;;5073264;27;95412;-73
2022/06/10 01:06:45;;;;;;;3.88;2.10;;;;;;;;;;5073811;27;96809;-72
2022/06/10 01:09:12;;;;;;;4.57;1.85;;;;;;;;;;5073571;27;97317;-73
2022/06/10 01:11:53;;;;;;;3.13;2.10;;;;;;;;;;5075657;27;95091;-73
2022/06/10 01:14:40;;;;;;;9.47;2.27;;;;;;;;;;5075550;27;96895;-73
2022/06/10 01:17:16;;;;;;;3.33;1.90;;;;;;;;;;5061058;27;96226;-72
2022/06/10 01:20:18;;;;;;;4.35;1.70;;;;;;;;;;5069411;27;95230;-73
2022/06/10 01:22:59;;;;;;;5.07;2.17;;;;;;;;;;4980181;28;96919;-73
2022/06/10 01:25:44;;;;;;;2.70;1.70;;;;;;;;;;5050026;27;96729;-72
2022/06/10 01:28:13;;;;;;;3.08;1.90;;;;;;;;;;5072449;27;96710;-73
2022/06/10 01:30:58;;;;;;;6.60;2.35;;;;;;;;;;5072317;27;97638;-73
2022/06/10 01:33:29;;;;;;;3.78;2.08;;;;;;;;;;5074918;27;95999;-73
2022/06/10 01:36:19;;;;;;;4.82;1.83;;;;;;;;;;5072648;27;96761;-73
2022/06/10 01:38:53;;;;;;;4.90;2.08;;;;;;;;;;5061616;27;97684;-72
2022/06/10 01:41:44;;;;;;;6.53;1.88;;;;;;;;;;5074151;27;95347;-72
2022/06/10 01:44:13;;;;;;;3.20;1.98;;;;;;;;;;5073405;27;97284;-72
2022/06/10 01:46:43;;;;;;;5.18;2.10;;;;;;;;;;5075052;27;97624;-72
2022/06/10 01:49:25;;;;;;;2.97;1.88;;;;;;;;;;5071627;27;95505;-72
2022/06/10 01:52:10;;;;;;;6.88;2.38;;;;;;;;;;5074721;27;97737;-73
2022/06/10 01:54:49;;;;;;;4.70;2.15;;;;;;;;;;5073422;27;95351;-72
2022/06/10 01:57:35;;;;;;;5.03;2.30;;;;;;;;;;5074637;27;97855;-72
2022/06/10 02:00:14;;;;;;;3.78;2.15;;;;;;;;;;5061078;27;96769;-72
2022/06/10 02:02:45;;;;;;;6.68;2.20;;;;;;;;;;5073887;27;96891;-73
2022/06/10 02:05:15;;;;;;;6.30;2.50;;;;;;;;;;5070057;27;96790;-73
2022/06/10 02:07:43;;;;;;;4.95;2.30;;;;;;;;;;5072524;27;97413;-73
2022/06/10 02:10:13;;;;;;;3.50;2.05;;;;;;;;;;5075127;27;95252;-72
2022/06/10 02:12:41;;;;;;;3.83;2.13;;;;;;;;;;5074590;27;96693;-73
2022/06/10 02:15:12;;;;;;;4.85;2.05;;;;;;;;;;5060514;27;95604;-73
2022/06/10 02:17:42;;;;;;;4.40;2.22;;;;;;;;;;5073322;27;96820;-73
2022/06/10 02:20:11;;;;;;;3.95;2.20;;;;;;;;;;5073972;27;96994;-73
2022/06/10 02:22:41;;;;;;;4.10;2.17;;;;;;;;;;5055566;27;97299;-73
2022/06/10 02:25:30;;;;;;;7.05;2.03;;;;;;;;;;5053208;27;95486;-73
2022/06/10 02:28:05;;;;;;;4.93;2.35;;;;;;;;;;5057948;27;97866;-72
2022/06/10 02:30:38;;;;;;;5.15;1.88;;;;;;;;;;5071168;27;96113;-72
2022/06/10 02:33:10;;;;;;;5.82;2.00;;;;;;;;;;5069102;27;97794;-72
2022/06/10 02:35:57;;;;;;;6.43;2.33;;;;;;;;;;5056852;27;98303;-73
2022/06/10 02:38:31;;;;;;;6.30;2.13;;;;;;;;;;5059880;27;95909;-71
2022/06/10 02:40:58;;;;;;;4.82;2.42;;;;;;;;;;5073711;27;96386;-71
2022/06/10 02:43:44;;;;;;;4.28;2.08;;;;;;;;;;5072606;27;95368;-72
2022/06/10 02:46:16;;;;;;;6.28;2.20;;;;;;;;;;5073098;27;96692;-72
2022/06/10 02:48:53;;;;;;;6.72;1.85;;;;;;;;;;5074013;27;98268;-72
2022/06/10 02:51:21;;;;;;;6.10;2.08;;;;;;;;;;5074421;27;95348;-72
2022/06/10 02:53:50;;;;;;;4.40;1.95;;;;;;;;;;5071330;27;96328;-72
2022/06/10 02:56:22;;;;;;;2.65;1.75;;;;;;;;;;5077270;27;97317;-72
2022/06/10 03:01:53;;;;;;;3.83;1.83;;;;;;;;;;5070485;27;96369;-72
2022/06/10 03:04:38;;;;;;;8.23;2.63;;;;;;;;;;5072340;27;95633;-73
2022/06/10 03:07:11;;;;;;;5.60;2.20;;;;;;;;;;5072725;27;97161;-73
2022/06/10 03:09:40;;;;;;;7.10;1.67;;;;;;;;;;5072595;27;99442;-72
2022/06/10 03:12:15;;;;;;;5.78;2.05;;;;;;;;;;5073593;27;95366;-72
2022/06/10 03:14:56;;;;;;;8.32;2.40;;;;;;;;;;5072482;27;96829;-73
2022/06/10 03:17:37;;;;;;;4.40;1.97;;;;;;;;;;5073209;27;97367;-73
2022/06/10 03:20:04;;;;;;;3.95;1.75;;;;;;;;;;5074787;27;95451;-72
2022/06/10 03:22:39;;;;;;;3.17;1.67;;;;;;;;;;5053370;27;97452;-73
2022/06/10 03:25:24;;;;;;;3.83;1.80;;;;;;;;;;5072781;27;95375;-73
2022/06/10 03:27:51;;;;;;;4.70;2.42;;;;;;;;;;5073789;27;96866;-72
2022/06/10 03:30:19;;;;;;;2.63;1.77;;;;;;;;;;5070553;27;97350;-73
2022/06/10 03:32:59;;;;;;;6.22;1.90;;;;;;;;;;5071870;27;97012;-73
2022/06/10 03:35:38;;;;;;;3.35;2.40;;;;;;;;;;5070878;27;96740;-72
2022/06/10 03:38:05;;;;;;;3.20;1.88;;;;;;;;;;5056330;27;97335;-72
2022/06/10 03:40:32;;;;;;;2.45;1.55;;;;;;;;;;5054461;27;95408;-72
2022/06/10 03:43:00;;;;;;;5.05;1.90;;;;;;;;;;5055564;27;96773;-72
2022/06/10 03:45:34;;;;;;;7.13;2.30;;;;;;;;;;5065882;27;95361;-72
2022/06/10 03:48:01;;;;;;;2.65;1.42;;;;;;;;;;5052840;27;96664;-72
2022/06/10 03:50:30;;;;;;;3.08;1.55;;;;;;;;;;5067736;27;97537;-72
2022/06/10 03:52:56;;;;;;;4.45;1.85;;;;;;;;;;5065486;27;95177;-72
2022/06/10 03:55:23;;;;;;;5.28;1.90;;;;;;;;;;5061114;27;96734;-72
2022/06/10 03:57:49;;;;;;;5.60;1.83;;;;;;;;;;5072490;27;96167;-72
2022/06/10 04:00:18;;;;;;;4.15;1.60;;;;;;;;;;5071398;27;95389;-72
2022/06/10 04:02:44;;;;;;;5.32;1.60;;;;;;;;;;5073096;27;96932;-72
2022/06/10 04:05:11;;;;;;;6.00;1.75;;;;;;;;;;5074449;27;97108;-72
2022/06/10 04:07:39;;;;;;;6.68;1.77;;;;;;;;;;5054027;27;96808;-73
2022/06/10 04:10:06;;;;;;;3.30;1.67;;;;;;;;;;5068121;27;97325;-72
2022/06/10 04:12:32;;;;;;;3.53;1.65;;;;;;;;;;5072463;27;95240;-72
2022/06/10 04:14:59;;;;;;;3.25;1.67;;;;;;;;;;5070378;27;96853;-73
2022/06/10 04:17:25;;;;;;;1.33;1.13;;;;;;;;;;5070508;27;96998;-72
2022/06/10 04:19:52;;;;;;;2.53;1.58;;;;;;;;;;5070509;27;95747;-73
2022/06/10 04:22:18;;;;;;;5.13;2.15;;;;;;;;;;5057558;27;96735;-73
2022/06/10 04:24:45;;;;;;;3.67;1.85;;;;;;;;;;5053470;27;97402;-73
2022/06/10 04:27:11;;;;;;;3.08;1.67;;;;;;;;;;5061877;27;95242;-73
2022/06/10 04:29:37;;;;;;;7.07;1.92;;;;;;;;;;5055660;27;97170;-73
2022/06/10 04:32:04;;;;;;;2.35;1.38;;;;;;;;;;5064199;27;96681;-73
2022/06/10 04:34:30;;;;;;;3.45;1.70;;;;;;;;;;5052097;27;96780;-73
2022/06/10 04:36:57;;;;;;;2.75;1.30;;;;;;;;;;5051208;27;97368;-73
2022/06/10 04:39:23;;;;;;;7.32;1.65;;;;;;;;;;5063660;27;95286;-73
2022/06/10 04:41:49;;;;;;;4.45;1.60;;;;;;;;;;5069126;27;96829;-73
2022/06/10 04:44:16;;;;;;;3.13;1.35;;;;;;;;;;5075278;27;97516;-73
2022/06/10 04:46:45;;;;;;;4.53;1.88;;;;;;;;;;5070882;27;96574;-72
2022/06/10 04:49:11;;;;;;;3.10;1.63;;;;;;;;;;5058779;27;96952;-73
2022/06/10 20:00:40;;;;;;;4.30;2.63;;;;;;;;;;5123236;27;95791;-71
2022/06/10 20:03:13;;;;;;;5.45;2.30;;;;;;;;;;5106695;27;97381;-71
2022/06/10 20:05:40;;;;;;;5.55;2.40;;;;;;;;;;5090369;27;95402;-73
2022/06/10 20:08:09;;;;;;;9.95;2.50;;;;;;;;;;5110316;27;97074;-73
2022/06/10 20:10:37;;;;;;;4.57;2.33;;;;;;;;;;5109758;27;97486;-72
2022/06/10 20:13:03;;;;;;;7.28;2.42;;;;;;;;;;5106293;27;95119;-73
2022/06/10 20:15:32;;;;;;;4.28;2.60;;;;;;;;;;5101278;27;96963;-72
2022/06/10 20:17:59;;;;;;;5.30;2.13;;;;;;;;;;5109755;27;97391;-83
2022/06/10 20:20:28;;;;;;;4.13;2.20;;;;;;;;;;5111838;27;95512;-72
2022/06/10 20:22:55;;;;;;;4.57;2.47;;;;;;;;;;5087033;27;97234;-73
2022/06/10 20:25:26;;;;;;;5.30;2.30;;;;;;;;;;5108212;27;95429;-73
2022/06/10 20:27:53;;;;;;;5.55;2.45;;;;;;;;;;5099567;27;96849;-72
2022/06/10 20:30:20;;;;;;;6.60;2.60;;;;;;;;;;5095929;27;99162;-72
2022/06/10 20:32:50;;;;;;;7.10;2.80;;;;;;;;;;5103125;27;95375;-72
2022/06/10 20:35:20;;;;;;;4.65;2.63;;;;;;;;;;5109762;27;96829;-73
2022/06/10 20:37:46;;;;;;;6.90;2.70;;;;;;;;;;5107419;27;97310;-72
2022/06/10 20:40:15;;;;;;;3.15;2.30;;;;;;;;;;5090456;27;95355;-72
2022/06/10 20:42:41;;;;;;;5.60;2.65;;;;;;;;;;5108463;27;96790;-73
2022/06/10 20:45:08;;;;;;;4.32;2.40;;;;;;;;;;5110283;27;95079;-72
2022/06/10 20:47:38;;;;;;;7.78;3.00;;;;;;;;;;5099488;27;96930;-72
2022/06/10 20:50:07;;;;;;;8.80;2.50;;;;;;;;;;5107856;27;97709;-72
2022/06/10 20:52:38;;;;;;;6.57;2.63;;;;;;;;;;5104166;27;95781;-72
2022/06/10 20:55:05;;;;;;;6.32;2.50;;;;;;;;;;5097736;27;96789;-71
2022/06/10 20:57:31;;;;;;;4.03;2.63;;;;;;;;;;5110070;27;97283;-71
2022/06/10 20:59:58;;;;;;;4.43;2.30;;;;;;;;;;5110612;27;98029;-71
2022/06/10 21:02:27;;;;;;;4.32;2.50;;;;;;;;;;5108345;27;96778;-71
2022/06/10 21:07:42;;;;;;;6.22;2.63;;;;;;;;;;5106945;27;95270;-72
2022/06/10 21:10:11;;;;;;;5.63;2.15;;;;;;;;;;5105433;27;97305;-72
2022/06/10 21:12:42;;;;;;;4.43;2.55;;;;;;;;;;5088845;27;95445;-72
2022/06/10 21:15:14;;;;;;;4.07;2.47;;;;;;;;;;5089730;27;96846;-72
2022/06/10 21:17:44;;;;;;;4.75;2.65;;;;;;;;;;5090352;27;97717;-72
2022/06/10 21:20:16;;;;;;;5.10;2.80;;;;;;;;;;5082073;27;95581;-72
2022/06/10 21:22:45;;;;;;;5.55;2.50;;;;;;;;;;5085012;27;95725;-72
2022/06/10 21:25:16;;;;;;;7.55;2.88;;;;;;;;;;5062783;27;96435;-73
2022/06/10 21:27:43;;;;;;;5.68;2.53;;;;;;;;;;5082156;27;95294;-73
2022/06/10 21:30:11;;;;;;;8.02;3.40;;;;;;;;;;5075549;27;96396;-72
2022/06/10 21:32:39;;;;;;;4.57;2.80;;;;;;;;;;5095829;27;95575;-72
2022/06/10 21:35:21;;;;;;;6.32;2.75;;;;;;;;;;5095176;27;98725;-72
2022/06/10 21:37:48;;;;;;;8.63;2.97;;;;;;;;;;5095209;27;96543;-72
2022/06/10 21:40:15;;;;;;;6.05;3.05;;;;;;;;;;5095801;27;95271;-72
2022/06/10 21:45:28;;;;;;;5.05;3.00;;;;;;;;;;5093256;27;97365;-72
2022/06/10 21:48:02;;;;;;;6.15;3.50;;;;;;;;;;5095229;27;95342;-72
2022/06/10 21:50:34;;;;;;;7.47;3.38;;;;;;;;;;5098187;27;96835;-72
2022/06/10 21:53:00;;;;;;;5.13;2.80;;;;;;;;;;5094714;27;95573;-72
2022/06/10 21:55:30;;;;;;;5.20;2.83;;;;;;;;;;5094802;27;96875;-72
2022/06/10 21:57:57;;;;;;;7.43;3.20;;;;;;;;;;5095229;27;97378;-72
2022/06/10 22:00:26;;;;;;;7.72;3.30;;;;;;;;;;5093403;27;95255;-72
2022/06/10 22:02:52;;;;;;;6.28;3.30;;;;;;;;;;5096056;27;96821;-72
2022/06/10 22:05:20;;;;;;;11.10;3.30;;;;;;;;;;5083608;27;96491;-72
2022/06/10 22:07:47;;;;;;;7.13;3.15;;;;;;;;;;5093140;27;95184;-72
2022/06/10 22:10:17;;;;;;;6.72;3.13;;;;;;;;;;5095947;27;96905;-72
2022/06/10 22:12:44;;;;;;;16.40;3.25;;;;;;;;;;5098738;27;95224;-72
2022/06/10 22:15:23;;;;;;;7.97;3.55;;;;;;;;;;5077026;27;96685;-72
2022/06/10 22:17:58;;;;;;;4.88;2.80;;;;;;;;;;5093828;27;97425;-72
2022/06/10 22:20:29;;;;;;;5.30;3.45;;;;;;;;;;5094963;27;96374;-71
2022/06/10 22:22:56;;;;;;;4.70;3.05;;;;;;;;;;5093664;27;96476;-73
2022/06/10 22:25:25;;;;;;;6.20;3.17;;;;;;;;;;5076151;27;98099;-73
2022/06/10 22:27:53;;;;;;;4.38;2.92;;;;;;;;;;5094415;27;95199;-72
2022/06/10 22:30:20;;;;;;;8.20;3.60;;;;;;;;;;5093899;27;96765;-72
2022/06/10 22:33:07;;;;;;;7.47;3.58;;;;;;;;;;5086206;27;97276;-72
2022/06/10 22:35:37;;;;;;;6.20;3.30;;;;;;;;;;5087663;27;97312;-71
2022/06/10 22:38:17;;;;;;;5.75;3.05;;;;;;;;;;5093401;27;97484;-72
2022/06/10 22:40:43;;;;;;;5.10;3.47;;;;;;;;;;5084194;27;95211;-72
2022/06/10 22:43:10;;;;;;;6.00;3.15;;;;;;;;;;5077818;27;95468;-72
2022/06/10 22:45:46;;;;;;;6.35;3.08;;;;;;;;;;5076438;27;98281;-72
2022/06/10 22:48:15;;;;;;;6.25;3.60;;;;;;;;;;5094167;27;95561;-71
2022/06/10 22:50:42;;;;;;;7.13;3.92;;;;;;;;;;5093832;27;96766;-72
2022/06/10 22:53:10;;;;;;;7.82;3.70;;;;;;;;;;5095089;27;97314;-71
2022/06/10 22:55:40;;;;;;;6.93;4.30;;;;;;;;;;5097950;27;95155;-72
2022/06/10 22:58:28;;;;;;;5.50;3.72;;;;;;;;;;5075880;27;96072;-73
2022/06/10 23:00:56;;;;;;;7.32;3.80;;;;;;;;;;5051816;27;95410;-72
2022/06/10 23:03:25;;;;;;;6.50;3.80;;;;;;;;;;5050960;27;97093;-71
2022/06/10 23:11:26;;;;;;;13.15;3.67;;;;;;;;;;5033760;27;96764;-72
2022/06/10 23:13:52;;;;;;;6.68;3.40;;;;;;;;;;5035995;27;97305;-72
2022/06/10 23:16:19;;;;;;;10.23;4.07;;;;;;;;;;5039254;27;96494;-72
2022/06/10 23:18:46;;;;;;;6.57;3.20;;;;;;;;;;5050589;27;97101;-72
2022/06/10 23:21:15;;;;;;;7.38;3.47;;;;;;;;;;5054265;27;95361;-72
2022/06/10 23:23:42;;;;;;;7.43;3.85;;;;;;;;;;5053807;27;97453;-72
2022/06/10 23:26:12;;;;;;;5.80;3.47;;;;;;;;;;5051787;27;96140;-72
2022/06/10 23:28:39;;;;;;;6.03;3.85;;;;;;;;;;5034531;27;95338;-73
2022/06/10 23:31:10;;;;;;;5.95;3.30;;;;;;;;;;5032879;27;95772;-72
2022/06/10 23:33:37;;;;;;;5.82;3.60;;;;;;;;;;5049783;27;97423;-72
2022/06/10 23:36:06;;;;;;;6.18;3.25;;;;;;;;;;5054091;27;97033;-72
2022/06/10 23:38:33;;;;;;;6.18;3.20;;;;;;;;;;5032537;27;96811;-72
2022/06/10 23:41:01;;;;;;;5.88;3.15;;;;;;;;;;5036055;27;97391;-71
2022/06/10 23:43:33;;;;;;;5.57;3.10;;;;;;;;;;5033222;27;97673;-72
2022/06/10 23:51:33;;;;;;;4.32;2.90;;;;;;;;;;5033107;27;96623;-72
2022/06/10 23:54:08;;;;;;;5.53;3.00;;;;;;;;;;5050693;27;97481;-72
2022/06/10 23:56:35;;;;;;;7.10;3.28;;;;;;;;;;5051088;27;95998;-72
2022/06/10 23:59:27;;;;;;;14.18;4.03;;;;;;;;;;5066093;27;97270;-72
